Aérodrome :
LOGIN :

S'inscrire | Disclaimer

   EN    FR    IT 

 










Légende :    VFR   VFR Marginal   IFR   IFR Intensif   IFR Très Intensif
Visi : 
Plafond : 
>= 8 km
>= 3000ft
5 à 8 km
1000 à 3000 ft
1500m à 5 km
500 à 1000 ft
800 à 1500m
200 à 500 ft
< 800m
< 200 ft
Symboles :   Orages  Brouillard  Fortes neiges  Fortes précipitations  Vent > 20 kt
SIGMETs :   Divers  Orages  Givrage  Turbulence  Onde Orograph.  Cendres Volcan.







- Altitude de l'aérodrome : 144 ft
- Code IATA : PGF
- Voir les cartes d'approche


LFMP - Perpignan

DERNIER METAR :
  • 211530Z AUTO 06005KT 020V110 CAVOK 21/10 Q1017 NOSIG

METARs EXPIRÉS :
  • 211500Z AUTO 09006KT 050V140 CAVOK 21/10 Q1017 NOSIG
  • 211430Z AUTO 10006KT 060V150 CAVOK 22/10 Q1017 NOSIG
  • 211400Z AUTO 08006KT 040V120 CAVOK 22/10 Q1017 NOSIG
  • 211330Z AUTO 07006KT 020V110 CAVOK 22/10 Q1017 NOSIG
  • 211300Z AUTO 11007KT 070V150 CAVOK 22/11 Q1018 NOSIG

TAF TAF LFMP
Valide du 21 à 15h jusqu'au 22 à 15h UTC


211400Z 2115/2215 07006KT CAVOK
BECMG 2116/2118 VRB02KT
BECMG 2213/2215 09010KT BKN010
ATIS : +33 4 68 63 75 12
Pas de NOTAMs connus pour ce terrain.



MET'MAP, la Météo Aéronautique d'un coup d'oeil ! - Copyright ORBIFLY Décembre 2007 - Disclaimer

ORBIFLY MET'MAP TEAM :

Programmation & Développement : Alexandra Zaïnal
Conception & Développement : Baudouin d'Aumeries
Co-Programmation & Développement : Marc-Olivier Méhu
Soutien technique & logistique : Manuel Goepfert

Contact : metmap@orbifly.com




SOURCES & CREDITS :

   NOAA